createdAt,value
2018-06-15T00:03:06.163Z,99742.25
2018-06-15T00:07:09.644Z,99747.97
2018-06-15T00:11:13.068Z,99748.01
2018-06-15T00:15:16.475Z,99749.30
2018-06-15T00:19:19.958Z,99751.56
2018-06-15T00:23:23.406Z,99754.66
2018-06-15T00:27:26.822Z,99752.00
2018-06-15T00:31:30.463Z,99745.81
2018-06-15T00:35:33.891Z,99749.80
2018-06-15T00:39:37.372Z,99744.13
2018-06-15T00:43:40.847Z,99742.40
2018-06-15T00:47:44.271Z,99746.39
2018-06-15T00:51:47.715Z,99747.80
2018-06-15T00:55:51.118Z,99745.20
2018-06-15T00:59:54.562Z,99746.07
2018-06-15T01:03:57.970Z,99746.54
2018-06-15T01:08:01.434Z,99743.88
2018-06-15T01:12:05.076Z,99745.64
2018-06-15T01:16:08.552Z,99744.73
2018-06-15T01:20:12.096Z,99743.95
2018-06-15T01:24:15.527Z,99740.42
2018-06-15T01:28:18.982Z,99742.69
2018-06-15T01:32:22.431Z,99747.59
2018-06-15T01:36:25.895Z,99741.40
2018-06-15T01:40:29.347Z,99744.53
2018-06-15T01:44:32.783Z,99740.18
2018-06-15T01:48:36.294Z,99733.99
2018-06-15T01:52:39.728Z,99736.22
2018-06-15T01:56:43.235Z,99738.06
2018-06-15T02:00:47.075Z,99740.28
2018-06-15T02:04:50.505Z,99734.10
2018-06-15T02:08:53.968Z,99739.42
2018-06-15T02:12:57.427Z,99742.09
2018-06-15T02:17:00.914Z,99740.36
2018-06-15T02:21:04.340Z,99744.81
2018-06-15T02:25:07.784Z,99746.97
2018-06-15T02:29:11.210Z,99748.27
2018-06-15T02:33:14.667Z,99753.99
2018-06-15T02:37:18.144Z,99754.53
2018-06-15T02:41:21.574Z,99752.84
2018-06-15T02:45:25.064Z,99747.98
2018-06-15T02:49:28.528Z,99751.97
2018-06-15T02:53:31.940Z,99752.91
2018-06-15T02:57:35.411Z,99755.61
2018-06-15T03:01:38.838Z,99755.24
2018-06-15T03:05:42.290Z,99746.80
2018-06-15T03:09:45.770Z,99750.82
2018-06-15T03:13:49.230Z,99756.07
2018-06-15T03:17:52.683Z,99758.27
2018-06-15T03:21:56.097Z,99754.73
2018-06-15T03:25:59.845Z,99760.50
2018-06-15T03:30:03.375Z,99762.73
2018-06-15T03:34:06.854Z,99765.39
2018-06-15T03:38:10.365Z,99775.53
2018-06-15T03:42:13.826Z,99776.03
2018-06-15T03:46:17.278Z,99776.86
2018-06-15T03:50:20.741Z,99771.94
2018-06-15T03:54:24.193Z,99777.26
2018-06-15T03:58:28.523Z,99783.91
2018-06-15T04:02:31.967Z,99778.23
2018-06-15T04:06:35.413Z,99767.52
2018-06-15T04:10:38.862Z,99773.23
2018-06-15T04:14:42.325Z,99776.75
2018-06-15T04:18:45.758Z,99784.74
2018-06-15T04:22:49.160Z,99782.02
2018-06-15T04:26:52.612Z,99788.59
2018-06-15T04:30:56.028Z,99800.61
2018-06-15T04:34:59.483Z,99798.41
2018-06-15T04:39:02.999Z,99797.52
2018-06-15T04:43:06.526Z,99793.52
2018-06-15T04:47:09.972Z,99795.75
2018-06-15T04:51:13.443Z,99792.73
2018-06-15T04:55:16.853Z,99796.22
2018-06-15T04:59:20.316Z,99800.61
2018-06-15T05:03:23.721Z,99804.10
2018-06-15T05:07:27.308Z,99803.23
2018-06-15T05:11:30.753Z,99801.87
2018-06-15T05:15:34.422Z,99804.06
2018-06-15T05:19:37.830Z,99797.02
2018-06-15T05:23:41.273Z,99795.97
2018-06-15T05:27:44.698Z,99799.42
2018-06-15T05:31:48.187Z,99802.31
2018-06-15T05:35:51.662Z,99807.31
2018-06-15T05:39:55.134Z,99801.25
2018-06-15T05:43:58.573Z,99801.50
2018-06-15T05:48:02.033Z,99791.24
2018-06-15T05:52:05.550Z,99797.00
2018-06-15T05:56:08.980Z,99799.73
2018-06-15T06:00:12.394Z,99807.27
2018-06-15T06:04:15.869Z,99809.49
2018-06-15T06:08:20.588Z,99812.55
2018-06-15T06:12:24.017Z,99819.72
2018-06-15T06:16:27.485Z,99822.45
2018-06-15T06:20:30.939Z,99818.56
2018-06-15T06:24:34.371Z,99824.76
2018-06-15T06:28:37.828Z,99817.63
2018-06-15T06:32:41.328Z,99820.66
2018-06-15T06:36:44.746Z,99825.05
2018-06-15T06:40:48.154Z,99819.72
2018-06-15T06:44:51.607Z,99825.98
2018-06-15T06:48:55.103Z,99819.76
2018-06-15T06:52:58.560Z,99822.89
2018-06-15T06:57:02.022Z,99826.73
2018-06-15T07:01:05.448Z,99834.62
2018-06-15T07:05:08.897Z,99833.67
2018-06-15T07:09:12.332Z,99830.04
2018-06-15T07:13:15.812Z,99838.78
2018-06-15T07:17:19.212Z,99830.71
2018-06-15T07:21:22.669Z,99828.01
2018-06-15T07:25:26.124Z,99819.04
2018-06-15T07:29:29.580Z,99813.70
2018-06-15T07:33:33.002Z,99816.30
2018-06-15T07:37:36.486Z,99813.04
2018-06-15T07:41:39.956Z,99822.69
2018-06-15T07:45:43.518Z,99825.27
2018-06-15T07:49:46.901Z,99821.19
2018-06-15T07:53:50.331Z,99816.64
2018-06-15T07:57:53.766Z,99813.94
2018-06-15T08:01:57.199Z,99810.25
2018-06-15T08:06:00.647Z,99808.52
2018-06-15T08:10:04.065Z,99813.80
2018-06-15T08:14:07.511Z,99808.31
2018-06-15T08:18:10.942Z,99810.86
2018-06-15T08:22:14.455Z,99806.77
2018-06-15T08:26:17.843Z,99803.17
2018-06-15T08:30:21.283Z,99804.38
2018-06-15T08:34:24.689Z,99800.72
2018-06-15T08:38:28.116Z,99805.02
2018-06-15T08:42:31.652Z,99804.00
2018-06-15T08:46:35.072Z,99795.86
2018-06-15T08:50:38.702Z,99802.23
2018-06-15T08:54:42.142Z,99799.88
2018-06-15T08:58:45.603Z,99804.21
2018-06-15T09:02:49.051Z,99797.84
2018-06-15T09:06:52.518Z,99803.95
2018-06-15T09:10:55.942Z,99809.06
2018-06-15T09:14:59.605Z,99798.22
2018-06-15T09:19:03.026Z,99800.53
2018-06-15T09:23:06.495Z,99801.95
2018-06-15T09:27:09.963Z,99798.52
2018-06-15T09:31:13.387Z,99795.16
2018-06-15T09:35:16.862Z,99793.55
2018-06-15T09:39:20.301Z,99790.51
2018-06-15T09:43:23.870Z,99791.06
2018-06-15T09:47:27.290Z,99784.08
2018-06-15T09:51:30.752Z,99785.63
2018-06-15T09:55:34.183Z,99778.13
2018-06-15T09:59:37.610Z,99786.95
2018-06-15T10:03:41.368Z,99780.48
2018-06-15T10:07:44.793Z,99783.55
2018-06-15T10:11:48.261Z,99785.58
2018-06-15T10:15:51.701Z,99779.11
2018-06-15T10:19:55.143Z,99778.67
2018-06-15T10:23:58.734Z,99775.17
2018-06-15T10:28:02.188Z,99776.70
2018-06-15T10:32:05.902Z,99760.70
2018-06-15T10:36:09.366Z,99766.67
2018-06-15T10:40:12.838Z,99765.92
2018-06-15T10:44:16.282Z,99761.19
2018-06-15T10:48:19.712Z,99751.51
2018-06-15T10:52:23.169Z,99749.92
2018-06-15T10:56:26.626Z,99759.27
2018-06-15T11:00:30.063Z,99758.02
2018-06-15T11:04:33.617Z,99758.04
2018-06-15T11:08:37.059Z,99757.97
2018-06-15T11:12:40.481Z,99756.48
2018-06-15T11:16:43.915Z,99760.84
2018-06-15T11:20:47.322Z,99753.80
2018-06-15T11:24:50.773Z,99757.36
2018-06-15T11:28:54.245Z,99749.56
2018-06-15T11:32:57.681Z,99757.14
2018-06-15T11:37:01.356Z,99751.36
2018-06-15T11:41:04.895Z,99745.12
2018-06-15T11:45:08.271Z,99734.27
2018-06-15T11:49:11.704Z,99738.52
2018-06-15T11:53:15.105Z,99733.40
2018-06-15T11:57:18.601Z,99729.19
2018-06-15T12:01:22.029Z,99739.86
2018-06-15T12:05:25.655Z,99740.41
2018-06-15T12:09:29.102Z,99740.67
2018-06-15T12:13:32.527Z,99733.86
2018-06-15T12:17:35.927Z,99743.98
2018-06-15T12:21:39.376Z,99738.83
2018-06-15T12:25:42.807Z,99735.36
2018-06-15T12:29:46.221Z,99737.64
2018-06-15T12:33:49.786Z,99739.70
2018-06-15T12:37:53.442Z,99740.41
2018-06-15T12:41:56.898Z,99734.97
2018-06-15T12:46:00.441Z,99735.30
2018-06-15T12:50:03.905Z,99736.72
2018-06-15T12:54:07.321Z,99739.16
2018-06-15T12:58:10.757Z,99733.55
2018-06-15T13:02:14.239Z,99736.38
2018-06-15T13:06:18.525Z,99738.20
2018-06-15T13:10:21.950Z,99733.23
2018-06-15T13:14:25.382Z,99732.97
2018-06-15T13:18:28.783Z,99729.56
2018-06-15T13:22:32.212Z,99724.95
2018-06-15T13:26:35.645Z,99717.34
2018-06-15T13:30:39.065Z,99707.05
2018-06-15T13:34:42.478Z,99701.80
2018-06-15T13:38:45.919Z,99703.92
2018-06-15T13:42:49.406Z,99692.22
2018-06-15T13:46:52.899Z,99696.25
2018-06-15T13:50:56.610Z,99689.16
2018-06-15T13:55:00.047Z,99684.06
2018-06-15T13:59:03.509Z,99690.70
2018-06-15T14:03:06.935Z,99683.44
2018-06-15T14:07:10.337Z,99679.34
2018-06-15T14:11:13.795Z,99679.73
2018-06-15T14:15:17.243Z,99676.30
2018-06-15T14:19:20.679Z,99675.27
2018-06-15T14:23:24.232Z,99680.16
2018-06-15T14:27:27.657Z,99674.20
2018-06-15T14:31:31.329Z,99678.44
2018-06-15T14:35:34.753Z,99664.69
2018-06-15T14:39:38.207Z,99667.47
2018-06-15T14:43:41.659Z,99665.68
2018-06-15T14:47:45.091Z,99658.87
2018-06-15T14:51:48.525Z,99660.77
2018-06-15T14:55:51.933Z,99661.95
2018-06-15T14:59:55.357Z,99654.84
2018-06-15T15:03:58.775Z,99659.23
2018-06-15T15:08:02.233Z,99645.75
2018-06-15T15:12:05.739Z,99653.06
2018-06-15T15:16:09.152Z,99649.69
2018-06-15T15:20:12.639Z,99646.86
2018-06-15T15:24:16.079Z,99649.93
2018-06-15T15:28:19.476Z,99640.31
2018-06-15T15:32:22.962Z,99639.45
2018-06-15T15:36:26.456Z,99636.93
2018-06-15T15:40:29.835Z,99629.80
2018-06-15T15:44:33.274Z,99636.52
2018-06-15T15:48:36.718Z,99632.81
2018-06-15T15:52:40.142Z,99629.31
2018-06-15T15:56:43.594Z,99634.67
2018-06-15T16:00:47.014Z,99636.55
2018-06-15T16:04:50.439Z,99636.09
2018-06-15T16:08:53.886Z,99641.48
2018-06-15T16:12:57.316Z,99635.90
2018-06-15T16:17:00.759Z,99643.89
2018-06-15T16:21:04.186Z,99639.56
2018-06-15T16:25:07.675Z,99634.67
2018-06-15T16:29:11.119Z,99629.57
2018-06-15T16:33:14.554Z,99621.58
2018-06-15T16:37:18.046Z,99626.11
2018-06-15T16:41:21.510Z,99625.63
2018-06-15T16:45:24.973Z,99628.39
2018-06-15T16:49:28.487Z,99616.37
2018-06-15T16:53:32.138Z,99612.81
2018-06-15T16:57:35.563Z,99627.53
2018-06-15T17:01:39.009Z,99621.14
2018-06-15T17:05:42.386Z,99625.30
2018-06-15T17:09:45.878Z,99627.27
2018-06-15T17:13:49.331Z,99629.59
2018-06-15T17:17:52.738Z,99631.59
2018-06-15T17:21:56.185Z,99624.73
2018-06-15T17:25:59.630Z,99623.55
2018-06-15T17:30:03.160Z,99624.50
2018-06-15T17:34:06.727Z,99621.03
2018-06-15T17:38:10.232Z,99622.91
2018-06-15T17:42:13.622Z,99634.33
2018-06-15T17:46:17.144Z,99631.88
2018-06-15T17:50:20.546Z,99635.92
2018-06-15T17:54:23.976Z,99644.55
2018-06-15T17:58:27.412Z,99640.52
2018-06-15T18:02:30.868Z,99646.27
2018-06-15T18:06:34.329Z,99642.89
2018-06-15T18:10:37.795Z,99647.20
2018-06-15T18:14:41.578Z,99647.44
2018-06-15T18:18:44.978Z,99654.81
2018-06-15T18:22:48.420Z,99651.83
2018-06-15T18:26:54.592Z,99654.27
2018-06-15T18:30:58.371Z,99654.34
2018-06-15T18:35:02.379Z,99662.98
2018-06-15T18:39:08.987Z,99661.98
2018-06-15T18:43:12.401Z,99671.47
2018-06-15T18:47:15.838Z,99670.20
2018-06-15T18:51:19.271Z,99672.48
2018-06-15T18:55:22.774Z,99678.58
2018-06-15T18:59:26.187Z,99676.94
2018-06-15T19:03:29.613Z,99684.45
2018-06-15T19:07:33.051Z,99685.17
2018-06-15T19:11:36.510Z,99686.67
2018-06-15T19:15:39.980Z,99695.30
2018-06-15T19:19:43.413Z,99692.35
2018-06-15T19:23:46.855Z,99704.97
2018-06-15T19:27:50.302Z,99701.98
2018-06-15T19:31:53.901Z,99708.70
2018-06-15T19:35:57.348Z,99707.98
2018-06-15T19:40:00.759Z,99716.20
2018-06-15T19:44:04.166Z,99713.84
2018-06-15T19:48:07.661Z,99711.45
2018-06-15T19:52:11.053Z,99711.60
2018-06-15T19:56:14.485Z,99718.80
2018-06-15T20:00:17.891Z,99724.25
2018-06-15T20:04:21.338Z,99727.86
2018-06-15T20:08:24.781Z,99729.20
2018-06-15T20:12:28.207Z,99730.32
2018-06-15T20:16:31.645Z,99729.67
2018-06-15T20:20:35.062Z,99724.45
2018-06-15T20:24:38.487Z,99724.07
2018-06-15T20:28:41.928Z,99725.08
2018-06-15T20:32:45.339Z,99723.98
2018-06-15T20:36:48.773Z,99730.43
2018-06-15T20:40:52.206Z,99727.52
2018-06-15T20:44:55.730Z,99727.72
2018-06-15T20:48:59.122Z,99728.90
2018-06-15T20:53:02.695Z,99735.27
2018-06-15T20:57:06.381Z,99743.13
2018-06-15T21:01:09.796Z,99744.60
2018-06-15T21:05:13.240Z,99741.30
2018-06-15T21:09:16.670Z,99748.59
2018-06-15T21:13:20.139Z,99742.57
2018-06-15T21:17:23.590Z,99739.16
2018-06-15T21:21:27.033Z,99753.12
2018-06-15T21:25:30.466Z,99748.00
2018-06-15T21:29:33.951Z,99747.66
2018-06-15T21:33:37.464Z,99751.44
2018-06-15T21:37:40.921Z,99755.17
2018-06-15T21:41:44.373Z,99751.32
2018-06-15T21:45:47.790Z,99769.33
2018-06-15T21:49:51.246Z,99767.50
2018-06-15T21:53:54.714Z,99765.48
2018-06-15T21:57:58.128Z,99770.13
2018-06-15T22:02:01.610Z,99762.27
2018-06-15T22:06:05.038Z,99765.50
2018-06-15T22:10:08.461Z,99761.22
2018-06-15T22:14:15.237Z,99763.52
2018-06-15T22:18:18.722Z,99761.45
2018-06-15T22:22:22.151Z,99763.39
2018-06-15T22:26:25.585Z,99760.84
2018-06-15T22:30:29.000Z,99768.15
2018-06-15T22:34:32.441Z,99767.41
2018-06-15T22:38:35.879Z,99766.20
2018-06-15T22:42:39.319Z,99769.96
2018-06-15T22:46:43.220Z,99773.69
2018-06-15T22:50:46.690Z,99771.97
2018-06-15T22:54:50.193Z,99768.07
2018-06-15T22:58:53.628Z,99763.25
2018-06-15T23:02:57.036Z,99769.03
2018-06-15T23:07:00.466Z,99770.81
2018-06-15T23:11:03.921Z,99769.53
2018-06-15T23:15:07.363Z,99765.52
2018-06-15T23:19:10.806Z,99763.38
2018-06-15T23:23:14.198Z,99756.48
2018-06-15T23:27:17.646Z,99755.20
2018-06-15T23:31:21.066Z,99749.97
2018-06-15T23:35:24.484Z,99757.27
2018-06-15T23:39:28.165Z,99747.57
2018-06-15T23:43:31.606Z,99749.57
2018-06-15T23:47:35.016Z,99746.09
2018-06-15T23:51:38.591Z,99745.80
2018-06-15T23:55:42.002Z,99742.05
2018-06-15T23:59:45.450Z,99739.50
